createdAt,value
2023-01-26T00:02:26.969Z,18.52
2023-01-26T00:04:54.824Z,19.38
2023-01-26T00:07:22.673Z,20.70
2023-01-26T00:09:50.721Z,17.98
2023-01-26T00:12:19.905Z,18.55
2023-01-26T00:14:53.418Z,19.65
2023-01-26T00:17:27.816Z,20.48
2023-01-26T00:19:58.450Z,20.85
2023-01-26T00:22:28.230Z,16.13
2023-01-26T00:24:56.161Z,17.92
2023-01-26T00:27:26.157Z,18.58
2023-01-26T00:29:54.475Z,14.20
2023-01-26T00:32:22.670Z,18.77
2023-01-26T00:34:50.692Z,15.32
2023-01-26T00:37:19.143Z,12.82
2023-01-26T00:39:47.067Z,15.50
2023-01-26T00:42:15.852Z,14.40
2023-01-26T00:44:45.762Z,12.45
2023-01-26T00:47:15.701Z,12.60
2023-01-26T00:49:43.867Z,9.13
2023-01-26T00:52:12.468Z,7.63
2023-01-26T00:54:40.844Z,9.68
2023-01-26T00:57:08.782Z,10.13
2023-01-26T00:59:36.965Z,10.23
2023-01-26T01:02:06.558Z,9.07
2023-01-26T01:04:34.487Z,11.27
2023-01-26T01:07:02.504Z,9.60
2023-01-26T01:09:30.440Z,11.30
2023-01-26T01:11:58.385Z,13.82
2023-01-26T01:14:26.377Z,16.73
2023-01-26T01:16:54.269Z,15.48
2023-01-26T01:19:23.743Z,10.65
2023-01-26T01:21:54.599Z,8.93
2023-01-26T01:24:22.884Z,8.82
2023-01-26T01:26:50.920Z,9.23
2023-01-26T01:29:18.832Z,6.93
2023-01-26T01:31:46.747Z,8.27
2023-01-26T01:34:14.626Z,10.07
2023-01-26T01:36:44.082Z,8.75
2023-01-26T01:39:11.980Z,8.43
2023-01-26T01:41:39.917Z,8.95
2023-01-26T01:44:17.570Z,7.65
2023-01-26T01:46:53.295Z,7.05
2023-01-26T01:49:27.393Z,6.70
2023-01-26T01:52:03.515Z,6.85
2023-01-26T01:54:38.201Z,8.55
2023-01-26T01:57:19.000Z,9.18
2023-01-26T01:59:55.286Z,9.35
2023-01-26T02:02:23.656Z,10.27
2023-01-26T02:04:52.383Z,8.88
2023-01-26T02:07:22.406Z,11.10
2023-01-26T02:10:09.302Z,8.68
2023-01-26T02:12:37.764Z,10.70
2023-01-26T02:15:06.863Z,8.40
2023-01-26T02:17:34.827Z,9.55
2023-01-26T02:20:12.545Z,10.45
2023-01-26T02:22:54.363Z,10.18
2023-01-26T02:25:37.953Z,8.60
2023-01-26T02:28:07.669Z,10.35
2023-01-26T02:30:35.952Z,8.80
2023-01-26T02:33:04.072Z,10.25
2023-01-26T02:35:32.249Z,8.27
2023-01-26T02:38:01.863Z,8.77
2023-01-26T02:40:41.837Z,8.43
2023-01-26T02:43:11.092Z,9.25
2023-01-26T02:45:41.342Z,10.27
2023-01-26T02:48:09.313Z,8.88
2023-01-26T02:50:36.487Z,9.98
2023-01-26T02:53:05.409Z,8.13
2023-01-26T02:55:33.300Z,9.20
2023-01-26T02:58:04.571Z,12.40
2023-01-26T03:00:37.974Z,11.85
2023-01-26T03:03:14.921Z,11.02
2023-01-26T03:05:42.986Z,10.77
2023-01-26T03:08:11.156Z,12.88
2023-01-26T03:10:39.455Z,10.50
2023-01-26T03:13:08.291Z,11.35
2023-01-26T03:15:52.553Z,11.27
2023-01-26T03:18:41.962Z,12.73
2023-01-26T03:21:31.783Z,11.45
2023-01-26T03:24:17.727Z,13.10
2023-01-26T03:27:03.929Z,12.10
2023-01-26T03:29:34.121Z,13.20
2023-01-26T03:32:04.421Z,12.35
2023-01-26T03:34:32.771Z,11.38
2023-01-26T03:37:00.894Z,11.63
2023-01-26T03:39:53.411Z,13.65
2023-01-26T03:42:39.219Z,11.60
2023-01-26T03:45:26.803Z,13.52
2023-01-26T03:48:25.965Z,11.27
2023-01-26T03:51:11.226Z,14.25
2023-01-26T03:53:57.111Z,13.82
2023-01-26T03:56:32.508Z,12.88
2023-01-26T03:59:10.972Z,15.95
2023-01-26T04:02:02.007Z,12.30
2023-01-26T04:04:49.748Z,12.40
2023-01-26T04:07:35.805Z,13.00
2023-01-26T04:10:03.740Z,11.65
2023-01-26T04:12:32.168Z,10.55
2023-01-26T04:15:33.181Z,13.15
2023-01-26T04:18:25.165Z,14.00
2023-01-26T04:21:15.086Z,12.27
2023-01-26T04:23:48.134Z,9.98
2023-01-26T04:26:16.912Z,12.93
2023-01-26T04:28:44.868Z,11.88
2023-01-26T04:31:12.861Z,14.20
2023-01-26T04:33:40.804Z,12.05
2023-01-26T04:36:11.788Z,12.27
2023-01-26T04:38:43.986Z,11.82
2023-01-26T04:41:13.629Z,12.68
2023-01-26T04:43:47.014Z,12.70
2023-01-26T04:46:16.215Z,11.55
2023-01-26T04:48:44.666Z,12.43
2023-01-26T04:51:17.303Z,13.90
2023-01-26T04:53:45.291Z,10.95
2023-01-26T04:56:23.783Z,11.13
2023-01-26T04:58:53.852Z,10.02
2023-01-26T05:01:23.904Z,10.15
2023-01-26T05:03:52.692Z,9.48
2023-01-26T05:06:22.387Z,7.70
2023-01-26T05:08:51.851Z,10.55
2023-01-26T05:11:20.151Z,8.65
2023-01-26T05:14:07.117Z,11.88
2023-01-26T05:16:47.784Z,9.10
2023-01-26T05:19:41.786Z,7.68
2023-01-26T05:22:37.633Z,8.88
2023-01-26T05:25:24.187Z,9.48
2023-01-26T05:28:01.914Z,9.85
2023-01-26T05:30:31.494Z,8.10
2023-01-26T05:33:05.480Z,9.85
2023-01-26T05:35:34.601Z,9.98
2023-01-26T05:38:05.174Z,9.85
2023-01-26T05:40:34.848Z,10.40
2023-01-26T05:43:02.815Z,8.60
2023-01-26T05:45:49.559Z,10.75
2023-01-26T05:48:18.715Z,12.48
2023-01-26T05:50:51.334Z,12.05
2023-01-26T05:53:22.685Z,14.30
2023-01-26T05:55:51.211Z,12.38
2023-01-26T05:58:22.707Z,10.15
2023-01-26T06:00:50.792Z,17.85
2023-01-26T06:03:25.381Z,14.63
2023-01-26T06:05:56.484Z,34.80
2023-01-26T06:08:36.277Z,12.38
2023-01-26T06:11:34.236Z,12.32
2023-01-26T06:14:18.275Z,10.55
2023-01-26T06:16:46.275Z,8.90
2023-01-26T06:19:14.388Z,10.30
2023-01-26T06:21:44.985Z,11.93
2023-01-26T06:24:15.242Z,10.70
2023-01-26T06:26:43.157Z,12.35
2023-01-26T06:29:12.547Z,9.02
2023-01-26T06:31:41.928Z,9.95
2023-01-26T06:34:11.420Z,11.35
2023-01-26T06:36:42.009Z,10.13
2023-01-26T06:39:16.918Z,10.50
2023-01-26T06:41:45.159Z,9.07
2023-01-26T06:44:13.941Z,12.40
2023-01-26T06:46:41.854Z,11.55
2023-01-26T06:49:10.859Z,12.55
2023-01-26T06:51:53.545Z,11.65
2023-01-26T06:54:25.551Z,12.40
2023-01-26T06:57:11.929Z,14.13
2023-01-26T07:00:00.407Z,14.57
2023-01-26T07:02:36.967Z,16.05
2023-01-26T07:05:05.633Z,17.10
2023-01-26T07:07:33.561Z,17.40
2023-01-26T07:10:02.893Z,16.35
2023-01-26T07:12:40.735Z,16.83
2023-01-26T07:15:11.376Z,17.45
2023-01-26T07:17:40.547Z,16.45
2023-01-26T07:20:12.739Z,12.13
2023-01-26T07:22:40.822Z,12.00
2023-01-26T07:25:10.692Z,9.82
2023-01-26T07:27:38.852Z,8.05
2023-01-26T07:30:08.885Z,8.65
2023-01-26T07:32:36.934Z,8.70
2023-01-26T07:35:05.783Z,5.55
2023-01-26T07:37:33.649Z,7.53
2023-01-26T07:40:01.559Z,9.75
2023-01-26T07:42:31.089Z,8.40
2023-01-26T07:45:19.389Z,10.18
2023-01-26T07:47:48.029Z,16.30
2023-01-26T07:50:16.554Z,9.15
2023-01-26T07:52:44.907Z,9.52
2023-01-26T07:55:16.207Z,6.28
2023-01-26T07:57:46.296Z,9.05
2023-01-26T08:00:15.760Z,6.75
2023-01-26T08:02:43.908Z,6.05
2023-01-26T08:05:11.876Z,10.18
2023-01-26T08:07:40.026Z,8.75
2023-01-26T08:10:10.922Z,9.65
2023-01-26T08:12:41.126Z,13.35
2023-01-26T08:15:11.813Z,12.88
2023-01-26T08:17:39.995Z,14.07
2023-01-26T08:20:09.963Z,13.05
2023-01-26T08:22:38.744Z,16.23
2023-01-26T08:25:08.973Z,16.73
2023-01-26T08:27:37.014Z,40.65
2023-01-26T08:30:06.670Z,27.77
2023-01-26T08:32:36.059Z,17.90
2023-01-26T08:35:04.161Z,17.20
2023-01-26T08:37:32.104Z,20.45
2023-01-26T08:39:59.990Z,16.73
2023-01-26T08:42:27.936Z,18.85
2023-01-26T08:44:55.829Z,22.30
2023-01-26T08:47:23.724Z,20.15
2023-01-26T08:49:53.111Z,23.75
2023-01-26T08:52:21.577Z,29.50
2023-01-26T08:54:49.746Z,21.35
2023-01-26T08:57:17.642Z,23.13
2023-01-26T08:59:45.601Z,17.50
2023-01-26T09:02:13.597Z,34.78
2023-01-26T09:04:41.521Z,22.00
2023-01-26T09:07:13.347Z,21.17
2023-01-26T09:09:41.679Z,16.58
2023-01-26T09:12:09.668Z,17.45
2023-01-26T09:14:37.532Z,21.02
2023-01-26T09:17:05.392Z,13.93
2023-01-26T09:19:33.704Z,14.52
2023-01-26T09:22:01.606Z,14.95
2023-01-26T09:24:30.820Z,28.60
2023-01-26T09:26:58.998Z,18.10
2023-01-26T09:29:27.046Z,15.82
2023-01-26T09:31:55.002Z,14.05
2023-01-26T09:34:25.185Z,17.83
2023-01-26T09:36:53.075Z,20.42
2023-01-26T09:39:20.946Z,14.57
2023-01-26T09:42:11.157Z,14.35
2023-01-26T09:44:50.060Z,13.25
2023-01-26T09:47:27.089Z,15.65
2023-01-26T09:50:05.562Z,13.75
2023-01-26T09:52:40.542Z,12.15
2023-01-26T09:55:20.369Z,11.73
2023-01-26T09:57:56.437Z,14.07
2023-01-26T10:00:31.765Z,8.70
2023-01-26T10:03:16.937Z,11.48
2023-01-26T10:05:55.127Z,12.48
2023-01-26T10:09:09.000Z,11.23
2023-01-26T10:11:43.780Z,13.73
2023-01-26T10:14:20.809Z,11.77
2023-01-26T10:16:54.094Z,12.65
2023-01-26T10:19:35.500Z,11.55
2023-01-26T10:22:13.414Z,13.00
2023-01-26T10:24:41.269Z,12.43
2023-01-26T10:27:14.921Z,11.82
2023-01-26T10:29:44.233Z,11.90
2023-01-26T10:32:16.016Z,14.45
2023-01-26T10:34:46.190Z,11.88
2023-01-26T10:37:22.760Z,13.55
2023-01-26T10:40:01.754Z,13.63
2023-01-26T10:42:33.211Z,13.82
2023-01-26T10:45:06.835Z,12.55
2023-01-26T10:47:34.816Z,14.02
2023-01-26T10:50:22.233Z,14.45
2023-01-26T10:53:02.250Z,12.27
2023-01-26T10:55:33.286Z,11.65
2023-01-26T10:58:02.309Z,15.65
2023-01-26T11:00:36.391Z,14.25
2023-01-26T11:03:18.400Z,11.27
2023-01-26T11:05:48.138Z,10.25
2023-01-26T11:08:36.178Z,10.75
2023-01-26T11:11:08.016Z,11.32
2023-01-26T11:13:35.973Z,11.25
2023-01-26T11:16:15.378Z,11.38
2023-01-26T11:18:58.807Z,10.90
2023-01-26T11:21:32.213Z,11.55
2023-01-26T11:24:09.987Z,11.02
2023-01-26T11:27:13.287Z,9.80
2023-01-26T11:30:07.322Z,9.57
2023-01-26T11:32:51.751Z,10.70
2023-01-26T11:35:40.772Z,12.87
2023-01-26T11:38:27.452Z,11.27
2023-01-26T11:41:21.847Z,8.13
2023-01-26T11:44:36.256Z,10.30
2023-01-26T11:47:25.033Z,9.23
2023-01-26T11:50:23.600Z,9.03
2023-01-26T11:53:19.282Z,6.37
2023-01-26T11:56:04.468Z,6.57
2023-01-26T11:58:41.940Z,7.13
2023-01-26T12:01:20.296Z,7.80
2023-01-26T12:03:51.518Z,6.97
2023-01-26T12:06:32.581Z,6.53
2023-01-26T12:09:05.740Z,7.13
2023-01-26T12:11:41.477Z,7.13
2023-01-26T12:14:22.101Z,6.93
2023-01-26T12:17:18.498Z,6.13
2023-01-26T12:20:00.158Z,6.83
2023-01-26T12:22:35.815Z,8.60
2023-01-26T12:25:23.619Z,7.00
2023-01-26T12:28:00.076Z,10.97
2023-01-26T12:30:42.456Z,10.77
2023-01-26T12:33:12.529Z,8.90
2023-01-26T12:35:59.272Z,9.07
2023-01-26T12:38:47.540Z,6.70
2023-01-26T12:41:33.454Z,7.60
2023-01-26T12:44:26.103Z,8.97
2023-01-26T12:47:06.792Z,9.27
2023-01-26T12:49:44.144Z,8.10
2023-01-26T12:52:22.742Z,7.57
2023-01-26T12:55:00.635Z,6.13
2023-01-26T12:57:37.616Z,7.22
2023-01-26T13:00:18.889Z,7.50
2023-01-26T13:02:51.519Z,6.53
2023-01-26T13:05:29.489Z,7.53
2023-01-26T13:07:57.559Z,6.88
2023-01-26T13:10:45.705Z,8.57
2023-01-26T13:13:33.301Z,8.98
2023-01-26T13:16:35.284Z,8.32
2023-01-26T13:19:04.608Z,7.40
2023-01-26T13:21:45.219Z,8.93
2023-01-26T13:24:46.813Z,12.52
2023-01-26T13:27:35.215Z,8.57
2023-01-26T13:30:03.764Z,6.60
2023-01-26T13:33:05.371Z,7.68
2023-01-26T13:35:34.390Z,7.97
2023-01-26T13:38:15.338Z,6.45
2023-01-26T13:40:47.971Z,8.32
2023-01-26T13:43:28.179Z,6.90
2023-01-26T13:46:23.633Z,8.48
2023-01-26T13:48:52.618Z,8.95
2023-01-26T13:51:25.408Z,9.68
2023-01-26T13:54:03.255Z,13.68
2023-01-26T13:56:34.229Z,13.35
2023-01-26T13:59:13.579Z,12.23
2023-01-26T14:01:44.051Z,9.57
2023-01-26T14:04:20.128Z,11.77
2023-01-26T14:06:56.337Z,23.83
2023-01-26T14:09:27.985Z,20.58
2023-01-26T14:12:01.804Z,23.55
2023-01-26T14:14:36.606Z,25.63
2023-01-26T14:17:26.453Z,55.75
2023-01-26T14:19:54.563Z,32.40
2023-01-26T14:22:22.682Z,35.45
2023-01-26T14:24:53.918Z,30.83
2023-01-26T14:27:36.665Z,44.33
2023-01-26T14:30:25.927Z,52.58
2023-01-26T14:33:05.184Z,58.17
2023-01-26T14:35:33.777Z,13.93
2023-01-26T14:38:17.844Z,15.38
2023-01-26T14:40:47.143Z,26.35
2023-01-26T14:43:16.569Z,17.45
2023-01-26T14:45:51.837Z,13.15
2023-01-26T14:48:27.129Z,15.57
2023-01-26T14:50:55.500Z,12.45
2023-01-26T14:53:25.831Z,29.77
2023-01-26T14:55:54.779Z,15.18
2023-01-26T14:58:29.138Z,13.65
2023-01-26T15:01:00.967Z,17.65
2023-01-26T15:03:35.958Z,24.45
2023-01-26T15:06:20.447Z,17.48
2023-01-26T15:09:05.180Z,24.58
2023-01-26T15:11:56.643Z,26.38
2023-01-26T15:14:35.278Z,15.30
2023-01-26T15:17:06.360Z,14.38
2023-01-26T15:19:41.976Z,16.55
2023-01-26T15:22:23.120Z,19.75
2023-01-26T15:25:03.441Z,26.88
2023-01-26T15:27:34.429Z,24.85
2023-01-26T15:30:04.471Z,22.95
2023-01-26T15:32:40.459Z,25.02
2023-01-26T15:35:22.395Z,24.58
2023-01-26T15:38:00.059Z,25.65
2023-01-26T15:40:28.417Z,24.83
2023-01-26T15:43:12.568Z,20.85
2023-01-26T15:45:43.419Z,23.08
2023-01-26T15:48:12.605Z,21.77
2023-01-26T15:50:40.490Z,22.98
2023-01-26T15:53:14.647Z,28.40
2023-01-26T15:55:45.032Z,28.60
2023-01-26T15:58:13.076Z,28.38
2023-01-26T16:00:41.011Z,26.75
2023-01-26T16:03:17.398Z,39.83
2023-01-26T16:05:47.876Z,31.33
2023-01-26T16:08:17.034Z,29.13
2023-01-26T16:10:46.191Z,30.17
2023-01-26T16:13:18.521Z,29.65
2023-01-26T16:15:49.869Z,27.23
2023-01-26T16:18:19.679Z,25.27
2023-01-26T16:20:50.516Z,30.77
2023-01-26T16:23:21.622Z,27.75
2023-01-26T16:25:51.021Z,28.98
2023-01-26T16:28:19.949Z,32.17
2023-01-26T16:30:50.845Z,24.45
2023-01-26T16:33:21.894Z,30.80
2023-01-26T16:35:49.811Z,27.00
2023-01-26T16:38:17.719Z,26.75
2023-01-26T16:40:48.668Z,27.70
2023-01-26T16:43:23.848Z,23.13
2023-01-26T16:45:52.475Z,31.67
2023-01-26T16:48:23.539Z,25.10
2023-01-26T16:50:54.565Z,23.77
2023-01-26T16:53:27.864Z,22.00
2023-01-26T16:55:56.915Z,23.23
2023-01-26T16:58:26.392Z,19.58
2023-01-26T17:00:55.105Z,24.33
2023-01-26T17:03:24.894Z,19.85
2023-01-26T17:05:52.858Z,22.20
2023-01-26T17:08:20.732Z,28.05
2023-01-26T17:11:00.974Z,21.33
2023-01-26T17:13:29.847Z,21.55
2023-01-26T17:15:58.396Z,23.35
2023-01-26T17:18:27.629Z,19.73
2023-01-26T17:20:55.625Z,18.25
2023-01-26T17:23:23.476Z,22.45
2023-01-26T17:25:58.224Z,20.80
2023-01-26T17:28:26.245Z,17.60
2023-01-26T17:30:54.413Z,16.17
2023-01-26T17:33:22.334Z,18.45
2023-01-26T17:36:01.038Z,18.50
2023-01-26T17:38:28.990Z,16.23
2023-01-26T17:40:57.524Z,22.42
2023-01-26T17:43:25.908Z,20.13
2023-01-26T17:46:02.669Z,18.52
2023-01-26T17:48:31.188Z,14.75
2023-01-26T17:51:00.416Z,16.92
2023-01-26T17:53:28.820Z,17.25
2023-01-26T17:55:57.021Z,14.70
2023-01-26T17:58:24.962Z,16.42
2023-01-26T18:00:53.966Z,14.80
2023-01-26T18:03:26.248Z,13.02
2023-01-26T18:05:56.278Z,14.35
2023-01-26T18:08:26.599Z,14.32
2023-01-26T18:10:59.333Z,13.65
2023-01-26T18:13:28.111Z,14.63
2023-01-26T18:15:56.307Z,15.82
2023-01-26T18:18:25.062Z,17.70
2023-01-26T18:20:53.464Z,14.40
2023-01-26T18:23:23.247Z,15.27
2023-01-26T18:25:53.140Z,16.05
2023-01-26T18:28:21.011Z,13.55
2023-01-26T18:30:49.421Z,13.23
2023-01-26T18:33:17.644Z,14.23
2023-01-26T18:35:45.539Z,12.15
2023-01-26T18:38:13.453Z,12.63
2023-01-26T18:40:41.771Z,11.63
2023-01-26T18:43:11.209Z,14.65
2023-01-26T18:45:42.618Z,10.93
2023-01-26T18:48:10.857Z,10.85
2023-01-26T18:50:39.213Z,12.88
2023-01-26T18:53:07.235Z,10.68
2023-01-26T18:55:35.188Z,14.07
2023-01-26T18:58:03.059Z,14.63
2023-01-26T19:00:32.655Z,12.80
2023-01-26T19:03:00.599Z,11.07
2023-01-26T19:05:29.441Z,9.20
2023-01-26T19:07:57.455Z,10.98
2023-01-26T19:10:25.357Z,8.10
2023-01-26T19:12:53.646Z,9.30
2023-01-26T19:15:21.605Z,8.90
2023-01-26T19:17:50.831Z,8.38
2023-01-26T19:20:19.151Z,6.03
2023-01-26T19:22:53.788Z,7.53
2023-01-26T19:25:21.887Z,5.65
2023-01-26T19:27:49.817Z,5.63
2023-01-26T19:30:19.029Z,8.10
2023-01-26T19:33:08.229Z,8.02
2023-01-26T19:35:38.298Z,8.40
2023-01-26T19:38:07.571Z,7.88
2023-01-26T19:40:35.739Z,6.75
2023-01-26T19:43:06.510Z,9.20
2023-01-26T19:45:34.456Z,7.22
2023-01-26T19:48:03.848Z,4.97
2023-01-26T19:50:31.853Z,6.22
2023-01-26T19:52:59.738Z,5.85
2023-01-26T19:55:27.627Z,7.70
2023-01-26T19:57:55.496Z,7.40
2023-01-26T20:00:23.873Z,5.57
2023-01-26T20:02:51.748Z,6.70
2023-01-26T20:05:21.106Z,6.32
2023-01-26T20:07:48.980Z,5.97
2023-01-26T20:10:18.231Z,7.38
2023-01-26T20:12:46.111Z,8.15
2023-01-26T20:15:14.370Z,7.85
2023-01-26T20:17:42.897Z,6.40
2023-01-26T20:20:13.416Z,6.90
2023-01-26T20:22:44.301Z,6.85
2023-01-26T20:25:12.950Z,6.15
2023-01-26T20:27:41.082Z,6.03
2023-01-26T20:30:11.299Z,7.20
2023-01-26T20:32:39.348Z,7.47
2023-01-26T20:35:09.682Z,5.93
2023-01-26T20:37:38.378Z,6.80
2023-01-26T20:40:09.205Z,6.78
2023-01-26T20:42:37.163Z,5.88
2023-01-26T20:45:05.656Z,8.90
2023-01-26T20:47:34.207Z,7.30
2023-01-26T20:50:02.181Z,6.05
2023-01-26T20:52:30.465Z,8.05
2023-01-26T20:54:58.462Z,13.38
2023-01-26T20:57:27.735Z,7.20
2023-01-26T20:59:55.738Z,8.23
2023-01-26T21:02:23.692Z,8.27
2023-01-26T21:04:54.150Z,8.68
2023-01-26T21:07:22.620Z,8.43
2023-01-26T21:09:50.501Z,8.25
2023-01-26T21:12:18.357Z,8.93
2023-01-26T21:14:47.789Z,6.75
2023-01-26T21:17:17.428Z,7.05
2023-01-26T21:19:45.319Z,5.28
2023-01-26T21:22:13.186Z,6.80
2023-01-26T21:24:41.018Z,6.35
2023-01-26T21:27:08.936Z,5.80
2023-01-26T21:29:36.806Z,7.00
2023-01-26T21:32:06.337Z,9.35
2023-01-26T21:34:34.410Z,7.03
2023-01-26T21:37:02.697Z,7.05
2023-01-26T21:39:33.486Z,5.35
2023-01-26T21:42:01.372Z,6.78
2023-01-26T21:44:31.549Z,5.57
2023-01-26T21:47:03.943Z,7.05
2023-01-26T21:49:33.172Z,7.43
2023-01-26T21:52:18.778Z,8.60
2023-01-26T21:54:46.976Z,6.88
2023-01-26T21:57:32.405Z,5.93
2023-01-26T22:00:03.638Z,5.97
2023-01-26T22:02:32.729Z,6.60
2023-01-26T22:05:01.971Z,5.95
2023-01-26T22:07:32.057Z,5.35
2023-01-26T22:09:59.916Z,5.80
2023-01-26T22:12:27.813Z,5.82
2023-01-26T22:14:55.664Z,6.65
2023-01-26T22:17:23.653Z,5.97
2023-01-26T22:19:51.550Z,5.85
2023-01-26T22:22:20.721Z,4.90
2023-01-26T22:24:48.578Z,4.35
2023-01-26T22:27:16.488Z,4.32
2023-01-26T22:29:44.380Z,4.97
2023-01-26T22:32:12.493Z,5.10
2023-01-26T22:34:43.022Z,4.47
2023-01-26T22:37:10.910Z,5.18
2023-01-26T22:39:40.097Z,4.50
2023-01-26T22:42:08.137Z,3.67
2023-01-26T22:44:36.585Z,4.13
2023-01-26T22:47:04.760Z,3.20
2023-01-26T22:49:32.623Z,4.57
2023-01-26T22:52:00.473Z,2.72
2023-01-26T22:54:28.678Z,4.05
2023-01-26T22:56:57.856Z,4.05
2023-01-26T22:59:26.035Z,4.38
2023-01-26T23:01:53.912Z,3.45
2023-01-26T23:04:21.853Z,5.18
2023-01-26T23:06:49.707Z,5.07
2023-01-26T23:09:17.599Z,4.90
2023-01-26T23:12:02.325Z,4.43
2023-01-26T23:14:31.305Z,5.07
2023-01-26T23:16:59.726Z,5.07
2023-01-26T23:19:27.702Z,4.45
2023-01-26T23:21:55.720Z,5.75
2023-01-26T23:24:23.827Z,5.13
2023-01-26T23:26:51.808Z,5.55
2023-01-26T23:29:20.993Z,3.72
2023-01-26T23:31:48.944Z,3.80
2023-01-26T23:34:16.922Z,3.88
2023-01-26T23:36:44.802Z,5.22
2023-01-26T23:39:12.668Z,5.72
2023-01-26T23:41:40.533Z,5.00
2023-01-26T23:44:08.391Z,4.40
2023-01-26T23:46:37.943Z,4.70
2023-01-26T23:49:05.845Z,4.22
2023-01-26T23:51:33.720Z,4.40
2023-01-26T23:54:01.629Z,4.28
2023-01-26T23:56:29.868Z,4.60
2023-01-26T23:58:57.722Z,3.72
